createdAt,value
2022-11-16T00:02:10.444Z,32.47
2022-11-16T00:04:36.936Z,36.40
2022-11-16T00:07:03.365Z,31.17
2022-11-16T00:09:32.123Z,30.07
2022-11-16T00:12:07.256Z,34.53
2022-11-16T00:14:35.468Z,33.10
2022-11-16T00:17:02.401Z,35.53
2022-11-16T00:19:29.642Z,38.80
2022-11-16T00:21:56.008Z,33.50
2022-11-16T00:24:23.763Z,33.83
2022-11-16T00:26:51.099Z,40.67
2022-11-16T00:29:25.218Z,31.70
2022-11-16T00:31:53.659Z,39.03
2022-11-16T00:34:21.284Z,39.70
2022-11-16T00:36:48.295Z,37.53
2022-11-16T00:39:16.262Z,35.87
2022-11-16T00:41:43.424Z,38.17
2022-11-16T00:44:10.953Z,35.60
2022-11-16T00:46:37.387Z,36.23
2022-11-16T00:49:05.326Z,37.87
2022-11-16T00:51:32.431Z,30.23
2022-11-16T00:53:58.808Z,33.60
2022-11-16T00:56:25.234Z,33.60
2022-11-16T00:58:51.618Z,36.93
2022-11-16T01:01:18.521Z,40.33
2022-11-16T01:03:45.866Z,32.60
2022-11-16T01:06:14.230Z,41.60
2022-11-16T01:08:41.686Z,40.37
2022-11-16T01:11:28.433Z,28.30
2022-11-16T01:13:55.450Z,34.10
2022-11-16T01:16:23.392Z,43.77
2022-11-16T01:18:52.125Z,37.33
2022-11-16T01:21:19.668Z,33.80
2022-11-16T01:23:46.105Z,36.30
2022-11-16T01:26:12.522Z,34.27
2022-11-16T01:28:38.862Z,41.37
2022-11-16T01:31:05.788Z,30.60
2022-11-16T01:33:32.367Z,35.93
2022-11-16T01:35:58.690Z,32.63
2022-11-16T01:38:29.526Z,33.43
2022-11-16T01:40:56.433Z,27.77
2022-11-16T01:43:25.429Z,29.30
2022-11-16T01:45:52.461Z,31.13
2022-11-16T01:48:30.126Z,28.33
2022-11-16T01:50:57.761Z,33.73
2022-11-16T01:53:24.787Z,33.07
2022-11-16T01:55:51.975Z,38.50
2022-11-16T01:58:22.927Z,34.13
2022-11-16T02:00:49.478Z,38.83
2022-11-16T02:03:20.425Z,33.33
2022-11-16T02:05:54.331Z,30.40
2022-11-16T02:09:01.738Z,29.17
2022-11-16T02:11:50.949Z,31.20
2022-11-16T02:14:38.965Z,29.20
2022-11-16T02:17:32.826Z,29.67
2022-11-16T02:20:14.398Z,29.93
2022-11-16T02:23:12.773Z,31.67
2022-11-16T02:25:59.594Z,29.80
2022-11-16T02:28:57.788Z,30.00
2022-11-16T02:31:31.135Z,23.87
2022-11-16T02:33:59.118Z,30.43
2022-11-16T02:36:26.069Z,29.27
2022-11-16T02:39:01.469Z,33.20
2022-11-16T02:41:33.633Z,29.23
2022-11-16T02:44:11.247Z,29.30
2022-11-16T02:46:41.732Z,27.83
2022-11-16T02:49:14.044Z,29.33
2022-11-16T02:51:42.421Z,30.77
2022-11-16T02:54:12.914Z,28.20
2022-11-16T02:56:52.311Z,29.13
2022-11-16T02:59:19.799Z,28.03
2022-11-16T03:01:59.177Z,24.93
2022-11-16T03:04:30.118Z,28.23
2022-11-16T03:06:58.053Z,21.80
2022-11-16T03:09:31.424Z,22.53
2022-11-16T03:12:02.885Z,27.30
2022-11-16T03:14:47.751Z,29.33
2022-11-16T03:17:26.269Z,31.40
2022-11-16T03:20:15.002Z,26.10
2022-11-16T03:22:41.264Z,28.87
2022-11-16T03:25:11.292Z,24.30
2022-11-16T03:27:51.717Z,26.90
2022-11-16T03:30:23.720Z,28.90
2022-11-16T03:33:02.331Z,35.80
2022-11-16T03:36:02.533Z,28.70
2022-11-16T03:38:30.713Z,24.80
2022-11-16T03:41:02.604Z,22.63
2022-11-16T03:43:30.812Z,21.17
2022-11-16T03:45:58.078Z,19.50
2022-11-16T03:48:24.882Z,20.87
2022-11-16T03:50:52.276Z,17.13
2022-11-16T03:53:18.598Z,22.23
2022-11-16T03:55:49.632Z,17.73
2022-11-16T03:58:18.715Z,21.80
2022-11-16T04:00:45.368Z,17.20
2022-11-16T04:03:11.955Z,18.83
2022-11-16T04:05:57.337Z,18.10
2022-11-16T04:08:42.386Z,17.13
2022-11-16T04:11:32.824Z,17.13
2022-11-16T04:14:18.213Z,16.47
2022-11-16T04:17:02.975Z,14.43
2022-11-16T04:19:47.850Z,16.00
2022-11-16T04:22:40.350Z,15.97
2022-11-16T04:25:21.420Z,24.17
2022-11-16T04:28:07.225Z,14.60
2022-11-16T04:30:52.666Z,19.13
2022-11-16T04:33:37.714Z,15.80
2022-11-16T04:36:23.107Z,13.90
2022-11-16T04:38:49.437Z,13.40
2022-11-16T04:41:34.474Z,14.97
2022-11-16T04:44:00.819Z,12.60
2022-11-16T04:46:45.816Z,14.10
2022-11-16T04:49:12.160Z,11.23
2022-11-16T04:51:38.533Z,14.67
2022-11-16T04:54:04.968Z,13.80
2022-11-16T04:56:31.296Z,11.73
2022-11-16T04:58:57.699Z,12.93
2022-11-16T05:01:44.164Z,12.60
2022-11-16T05:04:10.925Z,10.17
2022-11-16T05:06:37.308Z,11.37
2022-11-16T05:09:03.826Z,12.03
2022-11-16T05:11:30.378Z,9.33
2022-11-16T05:13:56.750Z,13.40
2022-11-16T05:16:23.088Z,10.63
2022-11-16T05:19:09.383Z,11.13
2022-11-16T05:21:35.745Z,12.60
2022-11-16T05:24:21.088Z,16.87
2022-11-16T05:26:47.462Z,12.43
2022-11-16T05:29:13.909Z,10.13
2022-11-16T05:31:40.730Z,12.30
2022-11-16T05:34:08.849Z,10.47
2022-11-16T05:36:35.170Z,11.70
2022-11-16T05:39:01.699Z,13.03
2022-11-16T05:41:28.304Z,11.10
2022-11-16T05:43:55.631Z,9.97
2022-11-16T05:46:22.463Z,13.23
2022-11-16T05:48:49.169Z,8.23
2022-11-16T05:51:15.784Z,7.57
2022-11-16T05:53:44.036Z,9.43
2022-11-16T05:56:11.657Z,8.07
2022-11-16T05:58:38.029Z,8.70
2022-11-16T06:01:04.409Z,7.03
2022-11-16T06:03:31.853Z,9.20
2022-11-16T06:05:58.769Z,9.10
2022-11-16T06:08:25.117Z,8.77
2022-11-16T06:10:51.635Z,11.00
2022-11-16T06:13:18.238Z,9.40
2022-11-16T06:15:51.148Z,7.97
2022-11-16T06:18:17.543Z,8.10
2022-11-16T06:20:43.890Z,9.83
2022-11-16T06:23:10.227Z,12.40
2022-11-16T06:25:39.021Z,8.43
2022-11-16T06:28:08.100Z,12.17
2022-11-16T06:30:34.873Z,8.57
2022-11-16T06:33:01.233Z,9.37
2022-11-16T06:35:27.552Z,10.40
2022-11-16T06:37:53.884Z,9.23
2022-11-16T06:40:20.235Z,9.70
2022-11-16T06:42:46.847Z,10.30
2022-11-16T06:45:13.328Z,11.37
2022-11-16T06:47:39.710Z,11.60
2022-11-16T06:50:06.466Z,10.60
2022-11-16T06:52:32.825Z,9.40
2022-11-16T06:54:59.151Z,9.17
2022-11-16T06:57:25.486Z,11.50
2022-11-16T06:59:51.806Z,10.60
2022-11-16T07:02:21.193Z,12.50
2022-11-16T07:04:47.736Z,11.50
2022-11-16T07:07:16.335Z,11.53
2022-11-16T07:09:44.434Z,12.10
2022-11-16T07:12:10.790Z,12.23
2022-11-16T07:14:37.162Z,13.20
2022-11-16T07:17:09.124Z,10.63
2022-11-16T07:19:36.621Z,13.37
2022-11-16T07:22:04.104Z,12.23
2022-11-16T07:24:30.429Z,11.70
2022-11-16T07:26:57.236Z,13.53
2022-11-16T07:29:24.412Z,13.40
2022-11-16T07:31:50.998Z,14.27
2022-11-16T07:34:17.331Z,15.93
2022-11-16T07:36:44.081Z,15.43
2022-11-16T07:39:10.517Z,18.40
2022-11-16T07:41:42.308Z,17.40
2022-11-16T07:44:12.073Z,17.17
2022-11-16T07:46:47.771Z,16.60
2022-11-16T07:49:16.265Z,20.50
2022-11-16T07:51:43.244Z,25.50
2022-11-16T07:54:16.345Z,26.33
2022-11-16T07:56:42.900Z,20.20
2022-11-16T07:59:09.405Z,31.93
2022-11-16T08:01:36.025Z,23.83
2022-11-16T08:04:02.754Z,26.13
2022-11-16T08:06:31.417Z,24.47
2022-11-16T08:08:59.229Z,22.40
2022-11-16T08:11:26.555Z,24.80
2022-11-16T08:13:53.342Z,24.83
2022-11-16T08:16:22.326Z,25.53
2022-11-16T08:18:48.892Z,22.40
2022-11-16T08:21:17.792Z,23.53
2022-11-16T08:23:47.394Z,22.47
2022-11-16T08:26:17.529Z,21.40
2022-11-16T08:28:46.627Z,22.73
2022-11-16T08:31:31.310Z,22.37
2022-11-16T08:34:00.276Z,21.23
2022-11-16T08:36:26.664Z,24.50
2022-11-16T08:38:53.812Z,17.50
2022-11-16T08:41:21.246Z,22.53
2022-11-16T08:43:50.305Z,22.67
2022-11-16T08:46:17.441Z,19.67
2022-11-16T08:48:44.508Z,23.77
2022-11-16T08:51:19.220Z,18.87
2022-11-16T08:53:48.601Z,16.97
2022-11-16T08:56:16.670Z,13.83
2022-11-16T08:58:47.265Z,19.13
2022-11-16T09:01:19.605Z,15.87
2022-11-16T09:03:46.735Z,18.30
2022-11-16T09:06:13.922Z,16.57
2022-11-16T09:08:42.235Z,15.70
2022-11-16T09:11:11.854Z,15.63
2022-11-16T09:13:38.199Z,12.80
2022-11-16T09:16:05.477Z,12.77
2022-11-16T09:18:32.103Z,14.83
2022-11-16T09:20:58.887Z,14.30
2022-11-16T09:23:28.685Z,12.43
2022-11-16T09:25:55.017Z,12.07
2022-11-16T09:28:22.089Z,15.43
2022-11-16T09:30:50.950Z,12.17
2022-11-16T09:33:17.826Z,12.30
2022-11-16T09:35:44.277Z,20.63
2022-11-16T09:38:12.732Z,9.50
2022-11-16T09:40:46.135Z,10.67
2022-11-16T09:43:53.519Z,9.00
2022-11-16T09:46:32.119Z,7.43
2022-11-16T09:49:02.572Z,10.93
2022-11-16T09:51:33.722Z,8.77
2022-11-16T09:54:16.908Z,14.10
2022-11-16T09:56:46.604Z,6.50
2022-11-16T09:59:23.604Z,6.50
2022-11-16T10:01:58.638Z,8.23
2022-11-16T10:04:38.717Z,6.90
2022-11-16T10:07:15.076Z,4.63
2022-11-16T10:09:42.257Z,8.40
2022-11-16T10:12:20.729Z,8.63
2022-11-16T10:15:13.793Z,7.23
2022-11-16T10:18:05.034Z,7.90
2022-11-16T10:21:03.438Z,6.03
2022-11-16T10:24:04.461Z,9.40
2022-11-16T10:26:47.066Z,2.93
2022-11-16T10:29:36.455Z,8.20
2022-11-16T10:32:26.065Z,10.37
2022-11-16T10:35:06.334Z,4.33
2022-11-16T10:37:37.405Z,7.17
2022-11-16T10:40:24.938Z,5.00
2022-11-16T10:42:57.272Z,5.60
2022-11-16T10:45:31.200Z,11.20
2022-11-16T10:48:03.973Z,3.90
2022-11-16T10:50:39.188Z,5.50
2022-11-16T10:53:05.946Z,6.53
2022-11-16T10:55:32.326Z,4.63
2022-11-16T10:58:02.116Z,6.53
2022-11-16T11:00:40.189Z,6.60
2022-11-16T11:03:07.214Z,10.97
2022-11-16T11:05:36.092Z,7.50
2022-11-16T11:08:10.783Z,5.67
2022-11-16T11:10:40.020Z,5.10
2022-11-16T11:13:12.351Z,7.90
2022-11-16T11:15:40.929Z,4.27
2022-11-16T11:18:19.499Z,5.93
2022-11-16T11:20:52.606Z,3.83
2022-11-16T11:23:23.164Z,7.20
2022-11-16T11:25:52.004Z,7.83
2022-11-16T11:28:31.724Z,4.40
2022-11-16T11:31:11.513Z,4.00
2022-11-16T11:33:41.624Z,5.90
2022-11-16T11:36:21.608Z,6.00
2022-11-16T11:39:26.032Z,6.30
2022-11-16T11:42:14.229Z,2.77
2022-11-16T11:44:50.318Z,4.80
2022-11-16T11:48:04.237Z,3.83
2022-11-16T11:51:09.106Z,5.53
2022-11-16T11:53:58.656Z,4.80
2022-11-16T11:56:27.463Z,6.93
2022-11-16T11:58:55.314Z,4.53
2022-11-16T12:01:33.876Z,6.13
2022-11-16T12:04:24.901Z,3.73
2022-11-16T12:07:03.508Z,3.10
2022-11-16T12:09:32.885Z,9.00
2022-11-16T12:12:39.464Z,4.40
2022-11-16T12:15:47.820Z,3.53
2022-11-16T12:18:38.708Z,3.50
2022-11-16T12:21:13.226Z,6.33
2022-11-16T12:24:04.964Z,2.60
2022-11-16T12:26:49.492Z,2.00
2022-11-16T12:29:29.442Z,2.70
2022-11-16T12:32:29.434Z,2.80
2022-11-16T12:35:09.376Z,6.30
2022-11-16T12:37:49.317Z,6.70
2022-11-16T12:40:30.990Z,10.60
2022-11-16T12:43:23.877Z,4.00
2022-11-16T12:46:19.122Z,9.80
2022-11-16T12:49:20.273Z,6.10
2022-11-16T12:52:11.160Z,3.27
2022-11-16T12:55:28.021Z,3.27
2022-11-16T12:58:18.619Z,4.03
2022-11-16T13:01:05.720Z,3.63
2022-11-16T13:03:57.055Z,7.80
2022-11-16T13:06:42.547Z,1.83
2022-11-16T13:09:40.122Z,3.17
2022-11-16T13:12:15.125Z,4.53
2022-11-16T13:14:47.462Z,4.30
2022-11-16T13:17:22.779Z,7.37
2022-11-16T13:20:22.537Z,3.23
2022-11-16T13:23:35.834Z,4.83
2022-11-16T13:26:10.396Z,8.00
2022-11-16T13:28:48.959Z,8.30
2022-11-16T13:31:42.274Z,4.17
2022-11-16T13:34:22.751Z,3.70
2022-11-16T13:36:49.170Z,4.57
2022-11-16T13:39:22.869Z,4.00
2022-11-16T13:42:05.331Z,5.93
2022-11-16T13:44:32.855Z,7.53
2022-11-16T13:47:04.608Z,6.97
2022-11-16T13:49:38.502Z,5.50
2022-11-16T13:52:26.627Z,8.83
2022-11-16T13:54:56.091Z,4.60
2022-11-16T13:57:34.003Z,5.50
2022-11-16T14:00:00.428Z,7.43
2022-11-16T14:02:29.151Z,4.40
2022-11-16T14:04:58.731Z,2.30
2022-11-16T14:07:34.480Z,10.50
2022-11-16T14:10:02.165Z,3.37
2022-11-16T14:12:37.462Z,2.20
2022-11-16T14:15:23.695Z,5.20
2022-11-16T14:18:06.760Z,3.73
2022-11-16T14:20:57.835Z,7.40
2022-11-16T14:23:43.034Z,2.60
2022-11-16T14:26:44.120Z,2.47
2022-11-16T14:29:26.545Z,5.80
2022-11-16T14:31:58.606Z,3.07
2022-11-16T14:34:32.635Z,3.37
2022-11-16T14:37:00.261Z,7.57
2022-11-16T14:39:31.115Z,5.47
2022-11-16T14:42:19.876Z,8.83
2022-11-16T14:44:47.253Z,2.63
2022-11-16T14:47:28.804Z,4.57
2022-11-16T14:49:55.829Z,3.37
2022-11-16T14:52:43.856Z,21.80
2022-11-16T14:55:18.616Z,2.50
2022-11-16T14:57:45.197Z,4.83
2022-11-16T15:00:17.838Z,3.83
2022-11-16T15:02:51.520Z,2.73
2022-11-16T15:05:21.210Z,7.33
2022-11-16T15:07:52.006Z,8.10
2022-11-16T15:10:21.487Z,2.47
2022-11-16T15:12:51.788Z,4.83
2022-11-16T15:15:27.522Z,3.20
2022-11-16T15:17:59.825Z,11.13
2022-11-16T15:20:28.744Z,3.30
2022-11-16T15:22:57.932Z,6.83
2022-11-16T15:25:41.452Z,4.10
2022-11-16T15:28:28.542Z,3.70
2022-11-16T15:30:58.616Z,3.97
2022-11-16T15:33:32.355Z,3.77
2022-11-16T15:35:59.352Z,7.13
2022-11-16T15:38:32.789Z,3.97
2022-11-16T15:41:04.277Z,4.00
2022-11-16T15:43:45.065Z,4.17
2022-11-16T15:46:23.467Z,3.07
2022-11-16T15:48:50.357Z,5.93
2022-11-16T15:51:19.952Z,5.40
2022-11-16T15:53:51.660Z,3.63
2022-11-16T15:56:27.148Z,11.20
2022-11-16T15:59:19.665Z,7.00
2022-11-16T16:01:46.135Z,5.77
2022-11-16T16:04:17.192Z,5.27
2022-11-16T16:06:54.269Z,8.30
2022-11-16T16:09:33.984Z,8.00
2022-11-16T16:12:21.453Z,6.40
2022-11-16T16:14:49.861Z,18.63
2022-11-16T16:17:28.741Z,7.07
2022-11-16T16:20:02.521Z,14.40
2022-11-16T16:22:46.894Z,12.30
2022-11-16T16:25:31.650Z,4.57
2022-11-16T16:27:58.758Z,6.87
2022-11-16T16:30:26.954Z,5.30
2022-11-16T16:32:53.889Z,7.10
2022-11-16T16:35:22.697Z,15.93
2022-11-16T16:37:51.742Z,33.53
2022-11-16T16:40:18.863Z,28.43
2022-11-16T16:42:48.029Z,27.93
2022-11-16T16:45:39.010Z,13.03
2022-11-16T16:48:06.384Z,15.23
2022-11-16T16:50:32.720Z,17.87
2022-11-16T16:52:59.052Z,15.47
2022-11-16T16:55:26.060Z,14.73
2022-11-16T16:57:54.089Z,8.97
2022-11-16T17:00:20.701Z,15.47
2022-11-16T17:02:47.046Z,11.53
2022-11-16T17:05:13.898Z,10.93
2022-11-16T17:07:41.234Z,8.10
2022-11-16T17:10:07.922Z,9.10
2022-11-16T17:12:34.320Z,9.20
2022-11-16T17:15:00.739Z,6.23
2022-11-16T17:17:27.123Z,10.73
2022-11-16T17:19:53.688Z,7.43
2022-11-16T17:22:20.729Z,8.20
2022-11-16T17:24:47.305Z,8.40
2022-11-16T17:27:14.164Z,10.13
2022-11-16T17:29:40.493Z,11.20
2022-11-16T17:32:07.102Z,11.40
2022-11-16T17:34:33.427Z,14.70
2022-11-16T17:37:00.242Z,6.97
2022-11-16T17:39:26.615Z,8.37
2022-11-16T17:41:53.024Z,9.80
2022-11-16T17:44:21.887Z,8.60
2022-11-16T17:46:48.713Z,5.87
2022-11-16T17:49:15.074Z,10.03
2022-11-16T17:51:41.438Z,9.70
2022-11-16T17:54:08.017Z,7.30
2022-11-16T17:56:36.008Z,6.30
2022-11-16T17:59:02.407Z,8.73
2022-11-16T18:01:28.951Z,7.23
2022-11-16T18:03:57.080Z,7.17
2022-11-16T18:06:25.203Z,9.67
2022-11-16T18:08:52.458Z,8.83
2022-11-16T18:11:24.167Z,13.47
2022-11-16T18:13:55.723Z,10.20
2022-11-16T18:16:24.667Z,9.03
2022-11-16T18:18:57.003Z,11.30
2022-11-16T18:21:23.999Z,8.40
2022-11-16T18:23:50.488Z,6.73
2022-11-16T18:26:21.004Z,9.03
2022-11-16T18:28:48.874Z,10.73
2022-11-16T18:31:20.840Z,18.20
2022-11-16T18:33:49.332Z,13.07
2022-11-16T18:36:20.813Z,10.63
2022-11-16T18:38:47.227Z,14.97
2022-11-16T18:41:13.527Z,19.63
2022-11-16T18:43:52.132Z,9.33
2022-11-16T18:46:20.229Z,15.90
2022-11-16T18:48:49.921Z,10.83
2022-11-16T18:51:20.994Z,11.17
2022-11-16T18:53:47.419Z,8.53
2022-11-16T18:56:16.003Z,5.43
2022-11-16T18:58:51.967Z,7.30
2022-11-16T19:01:22.205Z,7.20
2022-11-16T19:03:48.974Z,14.20
2022-11-16T19:06:17.455Z,11.07
2022-11-16T19:08:46.871Z,69.43
2022-11-16T19:11:16.784Z,30.23
2022-11-16T19:13:44.532Z,22.07
2022-11-16T19:16:12.562Z,5.73
2022-11-16T19:18:39.399Z,7.20
2022-11-16T19:21:07.645Z,16.40
2022-11-16T19:23:38.963Z,8.97
2022-11-16T19:26:06.176Z,23.80
2022-11-16T19:28:37.170Z,10.00
2022-11-16T19:31:08.533Z,7.97
2022-11-16T19:33:35.449Z,7.80
2022-11-16T19:36:26.182Z,7.53
2022-11-16T19:38:53.347Z,9.33
2022-11-16T19:41:23.375Z,11.20
2022-11-16T19:43:52.491Z,6.20
2022-11-16T19:46:24.129Z,7.47
2022-11-16T19:48:51.620Z,8.00
2022-11-16T19:51:21.150Z,9.40
2022-11-16T19:53:51.013Z,7.23
2022-11-16T19:56:20.133Z,16.83
2022-11-16T19:58:47.064Z,8.10
2022-11-16T20:01:26.110Z,23.43
2022-11-16T20:03:52.537Z,16.10
2022-11-16T20:06:24.827Z,13.83
2022-11-16T20:08:53.912Z,9.40
2022-11-16T20:11:22.993Z,6.00
2022-11-16T20:13:50.751Z,8.37
2022-11-16T20:16:25.869Z,6.47
2022-11-16T20:18:53.373Z,10.47
2022-11-16T20:21:25.724Z,8.23
2022-11-16T20:23:53.712Z,8.80
2022-11-16T20:26:28.800Z,12.60
2022-11-16T20:28:55.299Z,10.83
2022-11-16T20:31:30.361Z,10.77
2022-11-16T20:34:05.318Z,8.00
2022-11-16T20:36:33.218Z,5.70
2022-11-16T20:39:00.628Z,7.30
2022-11-16T20:41:32.943Z,6.97
2022-11-16T20:44:01.332Z,7.27
2022-11-16T20:46:29.982Z,8.00
2022-11-16T20:48:57.459Z,8.07
2022-11-16T20:51:23.844Z,6.50
2022-11-16T20:53:50.489Z,6.80
2022-11-16T20:56:19.335Z,10.43
2022-11-16T20:58:46.868Z,5.50
2022-11-16T21:01:16.636Z,6.30
2022-11-16T21:03:44.517Z,8.40
2022-11-16T21:06:12.592Z,9.03
2022-11-16T21:08:40.021Z,8.03
2022-11-16T21:11:15.022Z,11.90
2022-11-16T21:14:00.103Z,10.23
2022-11-16T21:16:26.834Z,8.13
2022-11-16T21:18:54.305Z,11.33
2022-11-16T21:21:20.688Z,7.60
2022-11-16T21:23:51.538Z,5.37
2022-11-16T21:26:20.485Z,6.83
2022-11-16T21:28:46.892Z,11.63
2022-11-16T21:31:15.831Z,6.30
2022-11-16T21:33:43.786Z,6.97
2022-11-16T21:36:15.203Z,9.50
2022-11-16T21:38:42.366Z,9.27
2022-11-16T21:41:10.613Z,5.60
2022-11-16T21:43:37.778Z,5.97
2022-11-16T21:46:07.728Z,6.73
2022-11-16T21:48:36.063Z,13.20
2022-11-16T21:51:05.132Z,7.93
2022-11-16T21:53:31.659Z,6.90
2022-11-16T21:55:58.280Z,9.63
2022-11-16T21:58:25.074Z,6.97
2022-11-16T22:00:56.518Z,12.10
2022-11-16T22:03:28.359Z,10.93
2022-11-16T22:06:14.883Z,8.87
2022-11-16T22:08:41.718Z,12.20
2022-11-16T22:11:09.118Z,9.67
2022-11-16T22:13:36.774Z,6.50
2022-11-16T22:16:12.044Z,8.80
2022-11-16T22:18:38.706Z,8.20
2022-11-16T22:21:05.717Z,12.90
2022-11-16T22:23:33.281Z,10.00
2022-11-16T22:26:11.079Z,7.60
2022-11-16T22:28:38.102Z,5.73
2022-11-16T22:31:10.622Z,7.30
2022-11-16T22:33:37.669Z,8.30
2022-11-16T22:36:04.701Z,9.33
2022-11-16T22:38:31.707Z,6.27
2022-11-16T22:40:58.020Z,8.20
2022-11-16T22:43:27.197Z,13.23
2022-11-16T22:46:01.784Z,8.63
2022-11-16T22:48:37.144Z,12.07
2022-11-16T22:51:21.933Z,9.03
2022-11-16T22:53:55.714Z,11.27
2022-11-16T22:56:22.658Z,7.80
2022-11-16T22:58:49.349Z,8.70
2022-11-16T23:01:15.949Z,7.00
2022-11-16T23:03:42.564Z,10.33
2022-11-16T23:06:09.576Z,7.50
2022-11-16T23:08:36.564Z,11.50
2022-11-16T23:11:27.761Z,11.07
2022-11-16T23:14:13.124Z,20.60
2022-11-16T23:16:40.700Z,11.07
2022-11-16T23:19:29.083Z,15.33
2022-11-16T23:22:28.826Z,9.83
2022-11-16T23:25:13.829Z,6.97
2022-11-16T23:27:55.142Z,10.80
2022-11-16T23:30:21.500Z,7.83
2022-11-16T23:32:48.077Z,12.00
2022-11-16T23:35:14.579Z,6.80
2022-11-16T23:37:58.210Z,13.37
2022-11-16T23:40:27.528Z,13.20
2022-11-16T23:43:13.328Z,12.50
2022-11-16T23:45:40.881Z,10.33
2022-11-16T23:48:09.045Z,9.60
2022-11-16T23:50:36.120Z,9.20
2022-11-16T23:53:02.813Z,8.53
2022-11-16T23:55:29.186Z,9.20
2022-11-16T23:57:55.727Z,13.73
